Grand Repblic — WDG7555 — position and weather

sailwx.info

Track history (hours):
 
Tides and Currents Weather Stations Pressure Air Temp Water Temp Dewpoint Dewpoint Depression Visibility Wind Speed Wind Dir Waves Ship Positions

Grand Repblic

Owner: Bridgeport & Port jefferson Steamboat Corp., Port Jefferson, NY. More information available from US FCC via Universal Licensing System and Coast Guard Vessel Documentation Center.

Last reported at 2018-Jun-18 10:40 UTC. Time now 2018-Jun-18 11:25 UTC.
Position N 41°05' W 073°09'.

Length 100 m; draft 4 m.

Type: Passenger vessel. MMSI: 367568460.

Date/timePositionNaut miles runAvg speedWind from/ knotsBaromVisibWave heightAir tempDewpointWater temp
2018-Jun-18 10:40N 41°05' W 073°09'316.1
2018-Jun-18 10:29N 41°02' W 073°07'3 0.3
2018-Jun-18 01:29N 41°05' W 073°08'715.6
2018-Jun-18 01:01N 40°58' W 073°06'11 1.4
2018-Jun-17 17:06N 41°08' W 073°11'0 0.1
2018-Jun-17 16:13N 41°09' W 073°11'416.3
2018-Jun-17 16:00N 41°05' W 073°09'4 1.2
2018-Jun-17 12:55N 41°09' W 073°11'615.5
2018-Jun-17 12:30N 41°03' W 073°08'4 0.4
2018-Jun-17 02:37N 41°06' W 073°11'3 2.6
2018-Jun-17 01:26N 41°04' W 073°08'  
2018-Jun-12 11:42N 41°05' W 073°09'4 0.2
2018-Jun-11 20:08N 41°08' W 073°11'215.6
2018-Jun-11 19:59N 41°06' W 073°10'5 0.3
2018-Jun-11 01:19N 41°01' W 073°07'1 0.1
2018-Jun-10 18:48N 41°00' W 073°07'5 1.8
2018-Jun-10 15:56N 41°05' W 073°09'716.6
2018-Jun-10 15:30N 40°59' W 073°06'0 0.1
2018-Jun-10 14:27N 40°59' W 073°06'1 0.0
2018-Jun-09 11:47N 40°59' W 073°06'  
Track history (hours):
 
Tides and Currents Weather Stations Pressure Air Temp Water Temp Dewpoint Dewpoint Depression Visibility Wind Speed Wind Dir Waves Ship Positions

Grand Repblic

Owner: Bridgeport & Port jefferson Steamboat Corp., Port Jefferson, NY. More information available from US FCC via Universal Licensing System and Coast Guard Vessel Documentation Center.

Last reported at 2018-Jun-18 10:40 UTC. Time now 2018-Jun-18 11:25 UTC.
Position N 41°05' W 073°09'.

Length 100 m; draft 4 m.

Type: Passenger vessel. MMSI: 367568460.

Date/timePositionNaut miles runAvg speedWind from/ knotsBaromVisibWave heightAir tempDewpointWater temp
2018-Jun-18 10:40N 41°05' W 073°09'316.1
2018-Jun-18 10:29N 41°02' W 073°07'3 0.3
2018-Jun-18 01:29N 41°05' W 073°08'715.6
2018-Jun-18 01:01N 40°58' W 073°06'11 1.4
2018-Jun-17 17:06N 41°08' W 073°11'0 0.1
2018-Jun-17 16:13N 41°09' W 073°11'416.3
2018-Jun-17 16:00N 41°05' W 073°09'4 1.2
2018-Jun-17 12:55N 41°09' W 073°11'615.5
2018-Jun-17 12:30N 41°03' W 073°08'4 0.4
2018-Jun-17 02:37N 41°06' W 073°11'3 2.6
2018-Jun-17 01:26N 41°04' W 073°08'  
2018-Jun-12 11:42N 41°05' W 073°09'4 0.2
2018-Jun-11 20:08N 41°08' W 073°11'215.6
2018-Jun-11 19:59N 41°06' W 073°10'5 0.3
2018-Jun-11 01:19N 41°01' W 073°07'1 0.1
2018-Jun-10 18:48N 41°00' W 073°07'5 1.8
2018-Jun-10 15:56N 41°05' W 073°09'716.6
2018-Jun-10 15:30N 40°59' W 073°06'0 0.1
2018-Jun-10 14:27N 40°59' W 073°06'1 0.0
2018-Jun-09 11:47N 40°59' W 073°06'  

Dump ship's entire track history